LFLN

Saint-Yan Airport

Airport
ICAO code
LFLN
Summary
ICAO Region
EUR
ICAO Territory
Location

, Bourgogne

Serving
St.-yan
Elevation
796 ft
Coordinates
46° 24' 45" N , 4° 0' 48" E
Metar
Observation
LFLN 030300Z AUTO 18003KT 9000 -RA FEW011 SCT022 OVC074 02/01 Q1013
Station
Saint-Yan
Date/Time
2022-12-03 03:00:00
Wind direction
180°
Wind speed
03 kts
Lowest cloud amount
few clouds
Temperature
2°C
Dew point
1°C
Humidity
93%
QNH
1013 hPa
Weather condition
n/a

Runways

Designator Length Width Surface Rops
15R/33L 1500 30 CON No/No
15L/33R 2030 45 CON No/No

Airport map

Aerial View

SKYbrary Partners:

Safety knowledge contributed by: